Accueil
METAR-TAF:

METAR-TAF

Aéroports :

Aéroport de Bournemouth

Bornemouth, Angleterre

latitude: 50-47N, longitude: 001-50W, altitude: 11 m

Observation

Le bulletin a été fait il y a 2 heures et 13 minutes, à 21:20 UTC
Vent 6 kt de sud-ouest
Température 14°C
Humidité 88%
Pression 1016 hPa
Visibilité 10 km ou plus
pas de nuages en-dessous de 1500 mètres et pas de cumulonimbus.

METAR: EGHH 172120Z 23006KT CAVOK 14/12 Q1016

Heure: 00:33 (23:33 UTC)

Prévision

Le bulletin a été fait il y a 6 heures et 37 minutes, à 16:56 UTC
Prévision valable du 17 à 18 UTC au 17 à 21 UTC
Vent 9 kt de sud/sud-ouest
Visibilité 10 km ou plus
Quelques nuages à une hauteur de 3000 ft
Probabilité 30% :
Temporairement
du 17 à 18 UTC au 17 à 19 UTC
Visibilité: 7000 m
pluie

TAF: EGHH 171656Z 1718/1721 20009KT 9999 FEW030 PROB30 TEMPO 1718/1719 7000 RA

Observations et prévisions météorologiques de plus de 4000 aéroports (messages METAR et TAF).

Les stations disponibles sont représentées par des disques jaunes et rouges sur la carte.

Passer la souris dessus pour voir le nom de la station.

Cliquer dessus pour voir les observations et prévisions météorologiques.

Pour changer de carte: cliquez sur les boutons verts avec une croix noire pour zoomer, sur le bouton vert avec un tiret pour effectuer un zoom arrière, ou sur les flèches vertes pour les cartes adjacentes.


METAR-TAF: